<?xml version="1.0" encoding="UTF-8" standalone="no" ?>
<gpx xmlns="http://www.topografix.com/GPX/1/1" xmlns:xsi="http://www.w3.org/2001/XMLSchema-instance" xsi:schemaLocation="http://www.topografix.com/GPX/1/1 http://www.topografix.com/GPX/1/1/gpx.xsd" version="1.1" creator="VisuGPX - https://www.visugpx.com">
  <metadata>
    <name>HODENT GENAINVILLE OMERVILLE AMBLEVILLE</name>
    <desc><![CDATA[FAIT]]></desc>
  </metadata>
  <trk>
    <name><![CDATA[Hodent-Genainville-Omerville-Ambleville-18344625]]></name>
    <trkseg>
      <trkpt lat="49.14696" lon="1.76751">
        <ele>64</ele>
        <time>2024-05-05T12:25:57Z</time>
      </trkpt>
      <trkpt lat="49.14622" lon="1.76599">
        <ele>68</ele>
        <time>2024-05-05T12:28:42Z</time>
      </trkpt>
      <trkpt lat="49.14684" lon="1.7674">
        <ele>64</ele>
        <time>2024-05-05T12:31:11Z</time>
      </trkpt>
      <trkpt lat="49.14637" lon="1.76773">
        <ele>71</ele>
        <time>2024-05-05T12:32:20Z</time>
      </trkpt>
      <trkpt lat="49.1464" lon="1.76791">
        <ele>72</ele>
        <time>2024-05-05T12:32:36Z</time>
      </trkpt>
      <trkpt lat="49.14639" lon="1.7681">
        <ele>73</ele>
        <time>2024-05-05T12:32:53Z</time>
      </trkpt>
      <trkpt lat="49.14634" lon="1.76826">
        <ele>74</ele>
        <time>2024-05-05T12:33:08Z</time>
      </trkpt>
      <trkpt lat="49.14584" lon="1.76775">
        <ele>81</ele>
        <time>2024-05-05T12:34:28Z</time>
      </trkpt>
      <trkpt lat="49.14579" lon="1.76755">
        <ele>80</ele>
        <time>2024-05-05T12:34:47Z</time>
      </trkpt>
      <trkpt lat="49.14571" lon="1.76618">
        <ele>77</ele>
        <time>2024-05-05T12:36:47Z</time>
      </trkpt>
      <trkpt lat="49.1457" lon="1.76617">
        <ele>77</ele>
        <time>2024-05-05T12:36:49Z</time>
      </trkpt>
      <trkpt lat="49.14571" lon="1.76618">
        <ele>77</ele>
        <time>2024-05-05T12:36:50Z</time>
      </trkpt>
      <trkpt lat="49.14579" lon="1.76755">
        <ele>80</ele>
        <time>2024-05-05T12:38:50Z</time>
      </trkpt>
      <trkpt lat="49.14584" lon="1.76775">
        <ele>81</ele>
        <time>2024-05-05T12:39:09Z</time>
      </trkpt>
      <trkpt lat="49.14577" lon="1.76777">
        <ele>81</ele>
        <time>2024-05-05T12:39:18Z</time>
      </trkpt>
      <trkpt lat="49.14546" lon="1.76796">
        <ele>84</ele>
        <time>2024-05-05T12:40:03Z</time>
      </trkpt>
      <trkpt lat="49.14528" lon="1.768">
        <ele>86</ele>
        <time>2024-05-05T12:40:27Z</time>
      </trkpt>
      <trkpt lat="49.14504" lon="1.76744">
        <ele>86</ele>
        <time>2024-05-05T12:41:26Z</time>
      </trkpt>
      <trkpt lat="49.14485" lon="1.76726">
        <ele>88</ele>
        <time>2024-05-05T12:41:56Z</time>
      </trkpt>
      <trkpt lat="49.14449" lon="1.767">
        <ele>92</ele>
        <time>2024-05-05T12:42:49Z</time>
      </trkpt>
      <trkpt lat="49.14391" lon="1.76682">
        <ele>97</ele>
        <time>2024-05-05T12:44:08Z</time>
      </trkpt>
      <trkpt lat="49.14214" lon="1.7665">
        <ele>104</ele>
        <time>2024-05-05T12:48:06Z</time>
      </trkpt>
      <trkpt lat="49.14124" lon="1.76638">
        <ele>104</ele>
        <time>2024-05-05T12:50:06Z</time>
      </trkpt>
      <trkpt lat="49.14048" lon="1.76634">
        <ele>104</ele>
        <time>2024-05-05T12:51:48Z</time>
      </trkpt>
      <trkpt lat="49.14033" lon="1.76639">
        <ele>104</ele>
        <time>2024-05-05T12:52:08Z</time>
      </trkpt>
      <trkpt lat="49.14016" lon="1.76654">
        <ele>103</ele>
        <time>2024-05-05T12:52:34Z</time>
      </trkpt>
      <trkpt lat="49.13904" lon="1.76796">
        <ele>109</ele>
        <time>2024-05-05T12:55:48Z</time>
      </trkpt>
      <trkpt lat="49.13902" lon="1.76808">
        <ele>110</ele>
        <time>2024-05-05T12:55:59Z</time>
      </trkpt>
      <trkpt lat="49.13904" lon="1.76796">
        <ele>109</ele>
        <time>2024-05-05T12:56:10Z</time>
      </trkpt>
      <trkpt lat="49.13762" lon="1.76707">
        <ele>112</ele>
        <time>2024-05-05T12:59:35Z</time>
      </trkpt>
      <trkpt lat="49.13725" lon="1.76679">
        <ele>116</ele>
        <time>2024-05-05T13:00:30Z</time>
      </trkpt>
      <trkpt lat="49.13588" lon="1.76557">
        <ele>131</ele>
        <time>2024-05-05T13:04:02Z</time>
      </trkpt>
      <trkpt lat="49.13543" lon="1.76514">
        <ele>132</ele>
        <time>2024-05-05T13:05:12Z</time>
      </trkpt>
      <trkpt lat="49.1351" lon="1.76477">
        <ele>133</ele>
        <time>2024-05-05T13:06:07Z</time>
      </trkpt>
      <trkpt lat="49.13386" lon="1.76291">
        <ele>134</ele>
        <time>2024-05-05T13:09:59Z</time>
      </trkpt>
      <trkpt lat="49.13351" lon="1.76241">
        <ele>133</ele>
        <time>2024-05-05T13:11:03Z</time>
      </trkpt>
      <trkpt lat="49.13298" lon="1.76172">
        <ele>133</ele>
        <time>2024-05-05T13:12:36Z</time>
      </trkpt>
      <trkpt lat="49.13265" lon="1.76138">
        <ele>132</ele>
        <time>2024-05-05T13:13:29Z</time>
      </trkpt>
      <trkpt lat="49.13215" lon="1.76096">
        <ele>131</ele>
        <time>2024-05-05T13:14:45Z</time>
      </trkpt>
      <trkpt lat="49.13194" lon="1.76072">
        <ele>131</ele>
        <time>2024-05-05T13:15:20Z</time>
      </trkpt>
      <trkpt lat="49.13178" lon="1.76043">
        <ele>130</ele>
        <time>2024-05-05T13:15:53Z</time>
      </trkpt>
      <trkpt lat="49.13141" lon="1.75958">
        <ele>130</ele>
        <time>2024-05-05T13:17:22Z</time>
      </trkpt>
      <trkpt lat="49.13115" lon="1.75915">
        <ele>130</ele>
        <time>2024-05-05T13:18:13Z</time>
      </trkpt>
      <trkpt lat="49.13079" lon="1.75866">
        <ele>128</ele>
        <time>2024-05-05T13:19:18Z</time>
      </trkpt>
      <trkpt lat="49.13057" lon="1.75842">
        <ele>127</ele>
        <time>2024-05-05T13:19:54Z</time>
      </trkpt>
      <trkpt lat="49.13011" lon="1.75807">
        <ele>127</ele>
        <time>2024-05-05T13:21:02Z</time>
      </trkpt>
      <trkpt lat="49.12923" lon="1.75743">
        <ele>125</ele>
        <time>2024-05-05T13:23:12Z</time>
      </trkpt>
      <trkpt lat="49.12913" lon="1.75735">
        <ele>124</ele>
        <time>2024-05-05T13:23:27Z</time>
      </trkpt>
      <trkpt lat="49.12899" lon="1.75718">
        <ele>123</ele>
        <time>2024-05-05T13:23:51Z</time>
      </trkpt>
      <trkpt lat="49.12708" lon="1.75444">
        <ele>98</ele>
        <time>2024-05-05T13:29:41Z</time>
      </trkpt>
      <trkpt lat="49.12736" lon="1.75399">
        <ele>96</ele>
        <time>2024-05-05T13:30:35Z</time>
      </trkpt>
      <trkpt lat="49.12744" lon="1.75391">
        <ele>96</ele>
        <time>2024-05-05T13:30:48Z</time>
      </trkpt>
      <trkpt lat="49.12724" lon="1.75317">
        <ele>90</ele>
        <time>2024-05-05T13:31:58Z</time>
      </trkpt>
      <trkpt lat="49.12704" lon="1.75253">
        <ele>84</ele>
        <time>2024-05-05T13:33:00Z</time>
      </trkpt>
      <trkpt lat="49.12698" lon="1.75246">
        <ele>84</ele>
        <time>2024-05-05T13:33:10Z</time>
      </trkpt>
      <trkpt lat="49.12693" lon="1.75245">
        <ele>84</ele>
        <time>2024-05-05T13:33:16Z</time>
      </trkpt>
      <trkpt lat="49.1269" lon="1.75247">
        <ele>83</ele>
        <time>2024-05-05T13:33:21Z</time>
      </trkpt>
      <trkpt lat="49.12686" lon="1.75235">
        <ele>83</ele>
        <time>2024-05-05T13:33:33Z</time>
      </trkpt>
      <trkpt lat="49.12674" lon="1.75212">
        <ele>83</ele>
        <time>2024-05-05T13:33:58Z</time>
      </trkpt>
      <trkpt lat="49.12669" lon="1.75183">
        <ele>82</ele>
        <time>2024-05-05T13:34:24Z</time>
      </trkpt>
      <trkpt lat="49.12667" lon="1.75179">
        <ele>82</ele>
        <time>2024-05-05T13:34:29Z</time>
      </trkpt>
      <trkpt lat="49.12664" lon="1.75175">
        <ele>82</ele>
        <time>2024-05-05T13:34:34Z</time>
      </trkpt>
      <trkpt lat="49.12655" lon="1.75149">
        <ele>83</ele>
        <time>2024-05-05T13:35:00Z</time>
      </trkpt>
      <trkpt lat="49.12657" lon="1.75138">
        <ele>83</ele>
        <time>2024-05-05T13:35:10Z</time>
      </trkpt>
      <trkpt lat="49.1265" lon="1.7512">
        <ele>84</ele>
        <time>2024-05-05T13:35:28Z</time>
      </trkpt>
      <trkpt lat="49.12646" lon="1.75116">
        <ele>84</ele>
        <time>2024-05-05T13:35:35Z</time>
      </trkpt>
      <trkpt lat="49.12642" lon="1.75117">
        <ele>84</ele>
        <time>2024-05-05T13:35:40Z</time>
      </trkpt>
      <trkpt lat="49.12631" lon="1.75087">
        <ele>86</ele>
        <time>2024-05-05T13:36:10Z</time>
      </trkpt>
      <trkpt lat="49.12631" lon="1.7508">
        <ele>86</ele>
        <time>2024-05-05T13:36:16Z</time>
      </trkpt>
      <trkpt lat="49.12621" lon="1.75042">
        <ele>89</ele>
        <time>2024-05-05T13:36:52Z</time>
      </trkpt>
      <trkpt lat="49.12615" lon="1.75036">
        <ele>90</ele>
        <time>2024-05-05T13:37:01Z</time>
      </trkpt>
      <trkpt lat="49.12614" lon="1.75025">
        <ele>90</ele>
        <time>2024-05-05T13:37:11Z</time>
      </trkpt>
      <trkpt lat="49.12609" lon="1.74986">
        <ele>93</ele>
        <time>2024-05-05T13:37:46Z</time>
      </trkpt>
      <trkpt lat="49.12601" lon="1.74945">
        <ele>96</ele>
        <time>2024-05-05T13:38:23Z</time>
      </trkpt>
      <trkpt lat="49.12575" lon="1.74867">
        <ele>105</ele>
        <time>2024-05-05T13:39:40Z</time>
      </trkpt>
      <trkpt lat="49.12572" lon="1.74847">
        <ele>107</ele>
        <time>2024-05-05T13:39:58Z</time>
      </trkpt>
      <trkpt lat="49.12567" lon="1.74832">
        <ele>109</ele>
        <time>2024-05-05T13:40:12Z</time>
      </trkpt>
      <trkpt lat="49.1256" lon="1.74822">
        <ele>110</ele>
        <time>2024-05-05T13:40:25Z</time>
      </trkpt>
      <trkpt lat="49.12544" lon="1.74817">
        <ele>111</ele>
        <time>2024-05-05T13:40:47Z</time>
      </trkpt>
      <trkpt lat="49.12531" lon="1.74809">
        <ele>112</ele>
        <time>2024-05-05T13:41:06Z</time>
      </trkpt>
      <trkpt lat="49.12524" lon="1.748">
        <ele>112</ele>
        <time>2024-05-05T13:41:18Z</time>
      </trkpt>
      <trkpt lat="49.12514" lon="1.74764">
        <ele>116</ele>
        <time>2024-05-05T13:41:52Z</time>
      </trkpt>
      <trkpt lat="49.12522" lon="1.74736">
        <ele>117</ele>
        <time>2024-05-05T13:42:19Z</time>
      </trkpt>
      <trkpt lat="49.12523" lon="1.74706">
        <ele>118</ele>
        <time>2024-05-05T13:42:45Z</time>
      </trkpt>
      <trkpt lat="49.12536" lon="1.74649">
        <ele>118</ele>
        <time>2024-05-05T13:43:37Z</time>
      </trkpt>
      <trkpt lat="49.12567" lon="1.74556">
        <ele>112</ele>
        <time>2024-05-05T13:45:09Z</time>
      </trkpt>
      <trkpt lat="49.12581" lon="1.7449">
        <ele>107</ele>
        <time>2024-05-05T13:46:09Z</time>
      </trkpt>
      <trkpt lat="49.12148" lon="1.73547">
        <ele>129</ele>
        <time>2024-05-05T14:02:55Z</time>
      </trkpt>
      <trkpt lat="49.12182" lon="1.73575">
        <ele>129</ele>
        <time>2024-05-05T14:03:47Z</time>
      </trkpt>
      <trkpt lat="49.12203" lon="1.73601">
        <ele>129</ele>
        <time>2024-05-05T14:04:23Z</time>
      </trkpt>
      <trkpt lat="49.12226" lon="1.7361">
        <ele>129</ele>
        <time>2024-05-05T14:04:55Z</time>
      </trkpt>
      <trkpt lat="49.12259" lon="1.73632">
        <ele>129</ele>
        <time>2024-05-05T14:05:43Z</time>
      </trkpt>
      <trkpt lat="49.12298" lon="1.73654">
        <ele>128</ele>
        <time>2024-05-05T14:06:38Z</time>
      </trkpt>
      <trkpt lat="49.12332" lon="1.73664">
        <ele>128</ele>
        <time>2024-05-05T14:07:24Z</time>
      </trkpt>
      <trkpt lat="49.1239" lon="1.73555">
        <ele>126</ele>
        <time>2024-05-05T14:09:27Z</time>
      </trkpt>
      <trkpt lat="49.12408" lon="1.73467">
        <ele>124</ele>
        <time>2024-05-05T14:10:47Z</time>
      </trkpt>
      <trkpt lat="49.12428" lon="1.73364">
        <ele>123</ele>
        <time>2024-05-05T14:12:21Z</time>
      </trkpt>
      <trkpt lat="49.12446" lon="1.73251">
        <ele>124</ele>
        <time>2024-05-05T14:14:03Z</time>
      </trkpt>
      <trkpt lat="49.12448" lon="1.73166">
        <ele>124</ele>
        <time>2024-05-05T14:15:17Z</time>
      </trkpt>
      <trkpt lat="49.12448" lon="1.73043">
        <ele>126</ele>
        <time>2024-05-05T14:17:05Z</time>
      </trkpt>
      <trkpt lat="49.12451" lon="1.7289">
        <ele>129</ele>
        <time>2024-05-05T14:19:18Z</time>
      </trkpt>
      <trkpt lat="49.1246" lon="1.72705">
        <ele>133</ele>
        <time>2024-05-05T14:22:00Z</time>
      </trkpt>
      <trkpt lat="49.12471" lon="1.72528">
        <ele>133</ele>
        <time>2024-05-05T14:24:36Z</time>
      </trkpt>
      <trkpt lat="49.12473" lon="1.72506">
        <ele>133</ele>
        <time>2024-05-05T14:24:55Z</time>
      </trkpt>
      <trkpt lat="49.12526" lon="1.72434">
        <ele>133</ele>
        <time>2024-05-05T14:26:30Z</time>
      </trkpt>
      <trkpt lat="49.12737" lon="1.72257">
        <ele>135</ele>
        <time>2024-05-05T14:31:51Z</time>
      </trkpt>
      <trkpt lat="49.12775" lon="1.72214">
        <ele>134</ele>
        <time>2024-05-05T14:32:54Z</time>
      </trkpt>
      <trkpt lat="49.12852" lon="1.72137">
        <ele>135</ele>
        <time>2024-05-05T14:34:57Z</time>
      </trkpt>
      <trkpt lat="49.1292" lon="1.72037">
        <ele>134</ele>
        <time>2024-05-05T14:37:03Z</time>
      </trkpt>
      <trkpt lat="49.1305" lon="1.71928">
        <ele>136</ele>
        <time>2024-05-05T14:40:20Z</time>
      </trkpt>
      <trkpt lat="49.13242" lon="1.71786">
        <ele>136</ele>
        <time>2024-05-05T14:45:05Z</time>
      </trkpt>
      <trkpt lat="49.1326" lon="1.71768">
        <ele>136</ele>
        <time>2024-05-05T14:45:34Z</time>
      </trkpt>
      <trkpt lat="49.13252" lon="1.71748">
        <ele>136</ele>
        <time>2024-05-05T14:45:54Z</time>
      </trkpt>
      <trkpt lat="49.1326" lon="1.71738">
        <ele>136</ele>
        <time>2024-05-05T14:46:08Z</time>
      </trkpt>
      <trkpt lat="49.1362" lon="1.71799">
        <ele>124</ele>
        <time>2024-05-05T14:54:11Z</time>
      </trkpt>
      <trkpt lat="49.13705" lon="1.71824">
        <ele>121</ele>
        <time>2024-05-05T14:56:07Z</time>
      </trkpt>
      <trkpt lat="49.13748" lon="1.71833">
        <ele>119</ele>
        <time>2024-05-05T14:57:05Z</time>
      </trkpt>
      <trkpt lat="49.13813" lon="1.71835">
        <ele>118</ele>
        <time>2024-05-05T14:58:32Z</time>
      </trkpt>
      <trkpt lat="49.13869" lon="1.71845">
        <ele>117</ele>
        <time>2024-05-05T14:59:47Z</time>
      </trkpt>
      <trkpt lat="49.13889" lon="1.71852">
        <ele>118</ele>
        <time>2024-05-05T15:00:14Z</time>
      </trkpt>
      <trkpt lat="49.13891" lon="1.71848">
        <ele>117</ele>
        <time>2024-05-05T15:00:19Z</time>
      </trkpt>
      <trkpt lat="49.13895" lon="1.71847">
        <ele>117</ele>
        <time>2024-05-05T15:00:24Z</time>
      </trkpt>
      <trkpt lat="49.13921" lon="1.7185">
        <ele>118</ele>
        <time>2024-05-05T15:00:59Z</time>
      </trkpt>
      <trkpt lat="49.13939" lon="1.71752">
        <ele>111</ele>
        <time>2024-05-05T15:02:28Z</time>
      </trkpt>
      <trkpt lat="49.13946" lon="1.7173">
        <ele>110</ele>
        <time>2024-05-05T15:02:49Z</time>
      </trkpt>
      <trkpt lat="49.13959" lon="1.71717">
        <ele>110</ele>
        <time>2024-05-05T15:03:10Z</time>
      </trkpt>
      <trkpt lat="49.13972" lon="1.7171">
        <ele>110</ele>
        <time>2024-05-05T15:03:28Z</time>
      </trkpt>
      <trkpt lat="49.13991" lon="1.71706">
        <ele>110</ele>
        <time>2024-05-05T15:03:54Z</time>
      </trkpt>
      <trkpt lat="49.14017" lon="1.71706">
        <ele>110</ele>
        <time>2024-05-05T15:04:28Z</time>
      </trkpt>
      <trkpt lat="49.14041" lon="1.71703">
        <ele>109</ele>
        <time>2024-05-05T15:05:01Z</time>
      </trkpt>
      <trkpt lat="49.14048" lon="1.71699">
        <ele>109</ele>
        <time>2024-05-05T15:05:11Z</time>
      </trkpt>
      <trkpt lat="49.14062" lon="1.71661">
        <ele>105</ele>
        <time>2024-05-05T15:05:49Z</time>
      </trkpt>
      <trkpt lat="49.14065" lon="1.71644">
        <ele>104</ele>
        <time>2024-05-05T15:06:04Z</time>
      </trkpt>
      <trkpt lat="49.14066" lon="1.71624">
        <ele>102</ele>
        <time>2024-05-05T15:06:22Z</time>
      </trkpt>
      <trkpt lat="49.14065" lon="1.71576">
        <ele>99</ele>
        <time>2024-05-05T15:07:03Z</time>
      </trkpt>
      <trkpt lat="49.14068" lon="1.71534">
        <ele>94</ele>
        <time>2024-05-05T15:07:40Z</time>
      </trkpt>
      <trkpt lat="49.14068" lon="1.71523">
        <ele>93</ele>
        <time>2024-05-05T15:07:50Z</time>
      </trkpt>
      <trkpt lat="49.14061" lon="1.7151">
        <ele>92</ele>
        <time>2024-05-05T15:08:05Z</time>
      </trkpt>
      <trkpt lat="49.14028" lon="1.71488">
        <ele>93</ele>
        <time>2024-05-05T15:08:53Z</time>
      </trkpt>
      <trkpt lat="49.13998" lon="1.71473">
        <ele>95</ele>
        <time>2024-05-05T15:09:35Z</time>
      </trkpt>
      <trkpt lat="49.13995" lon="1.71469">
        <ele>95</ele>
        <time>2024-05-05T15:09:40Z</time>
      </trkpt>
      <trkpt lat="49.13995" lon="1.7146">
        <ele>95</ele>
        <time>2024-05-05T15:09:48Z</time>
      </trkpt>
      <trkpt lat="49.14" lon="1.71439">
        <ele>94</ele>
        <time>2024-05-05T15:10:07Z</time>
      </trkpt>
      <trkpt lat="49.14005" lon="1.71426">
        <ele>94</ele>
        <time>2024-05-05T15:10:21Z</time>
      </trkpt>
      <trkpt lat="49.14041" lon="1.71364">
        <ele>92</ele>
        <time>2024-05-05T15:11:33Z</time>
      </trkpt>
      <trkpt lat="49.14049" lon="1.71341">
        <ele>92</ele>
        <time>2024-05-05T15:11:56Z</time>
      </trkpt>
      <trkpt lat="49.1405" lon="1.71323">
        <ele>93</ele>
        <time>2024-05-05T15:12:12Z</time>
      </trkpt>
      <trkpt lat="49.14041" lon="1.71285">
        <ele>97</ele>
        <time>2024-05-05T15:12:47Z</time>
      </trkpt>
      <trkpt lat="49.14042" lon="1.71266">
        <ele>98</ele>
        <time>2024-05-05T15:13:03Z</time>
      </trkpt>
      <trkpt lat="49.14065" lon="1.71223">
        <ele>99</ele>
        <time>2024-05-05T15:13:52Z</time>
      </trkpt>
      <trkpt lat="49.14081" lon="1.71187">
        <ele>100</ele>
        <time>2024-05-05T15:14:30Z</time>
      </trkpt>
      <trkpt lat="49.1408" lon="1.71141">
        <ele>106</ele>
        <time>2024-05-05T15:15:10Z</time>
      </trkpt>
      <trkpt lat="49.14088" lon="1.71119">
        <ele>108</ele>
        <time>2024-05-05T15:15:32Z</time>
      </trkpt>
      <trkpt lat="49.14102" lon="1.71099">
        <ele>110</ele>
        <time>2024-05-05T15:15:58Z</time>
      </trkpt>
      <trkpt lat="49.14119" lon="1.71064">
        <ele>112</ele>
        <time>2024-05-05T15:16:36Z</time>
      </trkpt>
      <trkpt lat="49.14124" lon="1.71041">
        <ele>114</ele>
        <time>2024-05-05T15:16:57Z</time>
      </trkpt>
      <trkpt lat="49.14147" lon="1.7101">
        <ele>115</ele>
        <time>2024-05-05T15:17:38Z</time>
      </trkpt>
      <trkpt lat="49.14157" lon="1.70993">
        <ele>116</ele>
        <time>2024-05-05T15:17:58Z</time>
      </trkpt>
      <trkpt lat="49.14218" lon="1.7086">
        <ele>118</ele>
        <time>2024-05-05T15:20:20Z</time>
      </trkpt>
      <trkpt lat="49.14317" lon="1.70694">
        <ele>117</ele>
        <time>2024-05-05T15:23:36Z</time>
      </trkpt>
      <trkpt lat="49.14318" lon="1.70692">
        <ele>117</ele>
        <time>2024-05-05T15:23:38Z</time>
      </trkpt>
      <trkpt lat="49.14469" lon="1.70519">
        <ele>115</ele>
        <time>2024-05-05T15:27:50Z</time>
      </trkpt>
      <trkpt lat="49.14561" lon="1.70407">
        <ele>114</ele>
        <time>2024-05-05T15:30:27Z</time>
      </trkpt>
      <trkpt lat="49.14597" lon="1.70366">
        <ele>114</ele>
        <time>2024-05-05T15:31:27Z</time>
      </trkpt>
      <trkpt lat="49.14624" lon="1.70323">
        <ele>113</ele>
        <time>2024-05-05T15:32:19Z</time>
      </trkpt>
      <trkpt lat="49.14707" lon="1.7021">
        <ele>108</ele>
        <time>2024-05-05T15:34:47Z</time>
      </trkpt>
      <trkpt lat="49.14782" lon="1.70126">
        <ele>100</ele>
        <time>2024-05-05T15:36:51Z</time>
      </trkpt>
      <trkpt lat="49.14804" lon="1.70098">
        <ele>98</ele>
        <time>2024-05-05T15:37:29Z</time>
      </trkpt>
      <trkpt lat="49.14828" lon="1.70062">
        <ele>94</ele>
        <time>2024-05-05T15:38:14Z</time>
      </trkpt>
      <trkpt lat="49.14838" lon="1.70036">
        <ele>92</ele>
        <time>2024-05-05T15:38:40Z</time>
      </trkpt>
      <trkpt lat="49.14848" lon="1.69994">
        <ele>90</ele>
        <time>2024-05-05T15:39:19Z</time>
      </trkpt>
      <trkpt lat="49.14874" lon="1.69931">
        <ele>86</ele>
        <time>2024-05-05T15:40:24Z</time>
      </trkpt>
      <trkpt lat="49.14871" lon="1.69918">
        <ele>86</ele>
        <time>2024-05-05T15:40:36Z</time>
      </trkpt>
      <trkpt lat="49.14879" lon="1.69918">
        <ele>85</ele>
        <time>2024-05-05T15:40:47Z</time>
      </trkpt>
      <trkpt lat="49.14883" lon="1.69911">
        <ele>84</ele>
        <time>2024-05-05T15:40:55Z</time>
      </trkpt>
      <trkpt lat="49.1491" lon="1.69833">
        <ele>78</ele>
        <time>2024-05-05T15:42:12Z</time>
      </trkpt>
      <trkpt lat="49.14925" lon="1.69785">
        <ele>74</ele>
        <time>2024-05-05T15:42:59Z</time>
      </trkpt>
      <trkpt lat="49.14926" lon="1.69766">
        <ele>72</ele>
        <time>2024-05-05T15:43:15Z</time>
      </trkpt>
      <trkpt lat="49.14924" lon="1.69761">
        <ele>72</ele>
        <time>2024-05-05T15:43:20Z</time>
      </trkpt>
      <trkpt lat="49.14933" lon="1.69757">
        <ele>71</ele>
        <time>2024-05-05T15:43:33Z</time>
      </trkpt>
      <trkpt lat="49.14963" lon="1.69717">
        <ele>64</ele>
        <time>2024-05-05T15:44:26Z</time>
      </trkpt>
      <trkpt lat="49.14978" lon="1.69709">
        <ele>62</ele>
        <time>2024-05-05T15:44:47Z</time>
      </trkpt>
      <trkpt lat="49.15019" lon="1.69696">
        <ele>57</ele>
        <time>2024-05-05T15:45:43Z</time>
      </trkpt>
      <trkpt lat="49.15035" lon="1.69682">
        <ele>55</ele>
        <time>2024-05-05T15:46:08Z</time>
      </trkpt>
      <trkpt lat="49.15088" lon="1.69705">
        <ele>51</ele>
        <time>2024-05-05T15:47:21Z</time>
      </trkpt>
      <trkpt lat="49.151" lon="1.69724">
        <ele>51</ele>
        <time>2024-05-05T15:47:44Z</time>
      </trkpt>
      <trkpt lat="49.15109" lon="1.6975">
        <ele>51</ele>
        <time>2024-05-05T15:48:10Z</time>
      </trkpt>
      <trkpt lat="49.15157" lon="1.6988">
        <ele>51</ele>
        <time>2024-05-05T15:50:20Z</time>
      </trkpt>
      <trkpt lat="49.15163" lon="1.69899">
        <ele>50</ele>
        <time>2024-05-05T15:50:39Z</time>
      </trkpt>
      <trkpt lat="49.15166" lon="1.69919">
        <ele>50</ele>
        <time>2024-05-05T15:50:57Z</time>
      </trkpt>
      <trkpt lat="49.15172" lon="1.69926">
        <ele>49</ele>
        <time>2024-05-05T15:51:07Z</time>
      </trkpt>
      <trkpt lat="49.15183" lon="1.69955">
        <ele>48</ele>
        <time>2024-05-05T15:51:36Z</time>
      </trkpt>
      <trkpt lat="49.15194" lon="1.69971">
        <ele>47</ele>
        <time>2024-05-05T15:51:56Z</time>
      </trkpt>
      <trkpt lat="49.15202" lon="1.69975">
        <ele>47</ele>
        <time>2024-05-05T15:52:07Z</time>
      </trkpt>
      <trkpt lat="49.15282" lon="1.69998">
        <ele>42</ele>
        <time>2024-05-05T15:53:56Z</time>
      </trkpt>
      <trkpt lat="49.15293" lon="1.70001">
        <ele>42</ele>
        <time>2024-05-05T15:54:11Z</time>
      </trkpt>
      <trkpt lat="49.15359" lon="1.70021">
        <ele>48</ele>
        <time>2024-05-05T15:55:41Z</time>
      </trkpt>
      <trkpt lat="49.15364" lon="1.70024">
        <ele>49</ele>
        <time>2024-05-05T15:55:48Z</time>
      </trkpt>
      <trkpt lat="49.15371" lon="1.70035">
        <ele>51</ele>
        <time>2024-05-05T15:56:01Z</time>
      </trkpt>
      <trkpt lat="49.15395" lon="1.70041">
        <ele>56</ele>
        <time>2024-05-05T15:56:34Z</time>
      </trkpt>
      <trkpt lat="49.15444" lon="1.70084">
        <ele>69</ele>
        <time>2024-05-05T15:57:49Z</time>
      </trkpt>
      <trkpt lat="49.15587" lon="1.70123">
        <ele>93</ele>
        <time>2024-05-05T16:01:03Z</time>
      </trkpt>
      <trkpt lat="49.15596" lon="1.70134">
        <ele>94</ele>
        <time>2024-05-05T16:01:18Z</time>
      </trkpt>
      <trkpt lat="49.15611" lon="1.70157">
        <ele>94</ele>
        <time>2024-05-05T16:01:47Z</time>
      </trkpt>
      <trkpt lat="49.15615" lon="1.70169">
        <ele>94</ele>
        <time>2024-05-05T16:01:58Z</time>
      </trkpt>
      <trkpt lat="49.1562" lon="1.70175">
        <ele>94</ele>
        <time>2024-05-05T16:02:07Z</time>
      </trkpt>
      <trkpt lat="49.15629" lon="1.70174">
        <ele>95</ele>
        <time>2024-05-05T16:02:19Z</time>
      </trkpt>
      <trkpt lat="49.15648" lon="1.7021">
        <ele>93</ele>
        <time>2024-05-05T16:02:59Z</time>
      </trkpt>
      <trkpt lat="49.15674" lon="1.70248">
        <ele>92</ele>
        <time>2024-05-05T16:03:47Z</time>
      </trkpt>
      <trkpt lat="49.15686" lon="1.70258">
        <ele>92</ele>
        <time>2024-05-05T16:04:06Z</time>
      </trkpt>
      <trkpt lat="49.15728" lon="1.70282">
        <ele>92</ele>
        <time>2024-05-05T16:05:05Z</time>
      </trkpt>
      <trkpt lat="49.15802" lon="1.70384">
        <ele>90</ele>
        <time>2024-05-05T16:07:18Z</time>
      </trkpt>
      <trkpt lat="49.15843" lon="1.70446">
        <ele>90</ele>
        <time>2024-05-05T16:08:35Z</time>
      </trkpt>
      <trkpt lat="49.15881" lon="1.70497">
        <ele>91</ele>
        <time>2024-05-05T16:09:43Z</time>
      </trkpt>
      <trkpt lat="49.15907" lon="1.70542">
        <ele>91</ele>
        <time>2024-05-05T16:10:35Z</time>
      </trkpt>
      <trkpt lat="49.15919" lon="1.70566">
        <ele>91</ele>
        <time>2024-05-05T16:11:02Z</time>
      </trkpt>
      <trkpt lat="49.15962" lon="1.7061">
        <ele>93</ele>
        <time>2024-05-05T16:12:11Z</time>
      </trkpt>
      <trkpt lat="49.1606" lon="1.707">
        <ele>98</ele>
        <time>2024-05-05T16:14:43Z</time>
      </trkpt>
      <trkpt lat="49.16083" lon="1.70729">
        <ele>98</ele>
        <time>2024-05-05T16:15:23Z</time>
      </trkpt>
      <trkpt lat="49.16092" lon="1.70743">
        <ele>98</ele>
        <time>2024-05-05T16:15:40Z</time>
      </trkpt>
      <trkpt lat="49.16115" lon="1.7079">
        <ele>98</ele>
        <time>2024-05-05T16:16:31Z</time>
      </trkpt>
      <trkpt lat="49.16131" lon="1.70833">
        <ele>97</ele>
        <time>2024-05-05T16:17:14Z</time>
      </trkpt>
      <trkpt lat="49.16149" lon="1.70889">
        <ele>96</ele>
        <time>2024-05-05T16:18:09Z</time>
      </trkpt>
      <trkpt lat="49.16151" lon="1.7091">
        <ele>95</ele>
        <time>2024-05-05T16:18:27Z</time>
      </trkpt>
      <trkpt lat="49.16151" lon="1.70933">
        <ele>94</ele>
        <time>2024-05-05T16:18:48Z</time>
      </trkpt>
      <trkpt lat="49.16144" lon="1.70959">
        <ele>92</ele>
        <time>2024-05-05T16:19:12Z</time>
      </trkpt>
      <trkpt lat="49.16147" lon="1.70968">
        <ele>92</ele>
        <time>2024-05-05T16:19:21Z</time>
      </trkpt>
      <trkpt lat="49.16157" lon="1.7098">
        <ele>92</ele>
        <time>2024-05-05T16:19:38Z</time>
      </trkpt>
      <trkpt lat="49.1616" lon="1.70989">
        <ele>92</ele>
        <time>2024-05-05T16:19:47Z</time>
      </trkpt>
      <trkpt lat="49.16171" lon="1.7099">
        <ele>93</ele>
        <time>2024-05-05T16:20:01Z</time>
      </trkpt>
      <trkpt lat="49.16193" lon="1.70996">
        <ele>93</ele>
        <time>2024-05-05T16:20:31Z</time>
      </trkpt>
      <trkpt lat="49.1621" lon="1.70997">
        <ele>94</ele>
        <time>2024-05-05T16:20:54Z</time>
      </trkpt>
      <trkpt lat="49.16223" lon="1.71007">
        <ele>94</ele>
        <time>2024-05-05T16:21:13Z</time>
      </trkpt>
      <trkpt lat="49.16236" lon="1.71028">
        <ele>95</ele>
        <time>2024-05-05T16:21:39Z</time>
      </trkpt>
      <trkpt lat="49.16241" lon="1.71053">
        <ele>96</ele>
        <time>2024-05-05T16:22:01Z</time>
      </trkpt>
      <trkpt lat="49.16242" lon="1.71076">
        <ele>96</ele>
        <time>2024-05-05T16:22:21Z</time>
      </trkpt>
      <trkpt lat="49.16247" lon="1.71091">
        <ele>97</ele>
        <time>2024-05-05T16:22:36Z</time>
      </trkpt>
      <trkpt lat="49.16254" lon="1.71093">
        <ele>98</ele>
        <time>2024-05-05T16:22:46Z</time>
      </trkpt>
      <trkpt lat="49.16258" lon="1.71092">
        <ele>98</ele>
        <time>2024-05-05T16:22:51Z</time>
      </trkpt>
      <trkpt lat="49.16264" lon="1.7109">
        <ele>99</ele>
        <time>2024-05-05T16:22:59Z</time>
      </trkpt>
      <trkpt lat="49.16318" lon="1.71058">
        <ele>104</ele>
        <time>2024-05-05T16:24:17Z</time>
      </trkpt>
      <trkpt lat="49.16367" lon="1.71039">
        <ele>107</ele>
        <time>2024-05-05T16:25:24Z</time>
      </trkpt>
      <trkpt lat="49.16443" lon="1.71021">
        <ele>111</ele>
        <time>2024-05-05T16:27:07Z</time>
      </trkpt>
      <trkpt lat="49.16554" lon="1.7099">
        <ele>114</ele>
        <time>2024-05-05T16:29:37Z</time>
      </trkpt>
      <trkpt lat="49.16575" lon="1.70982">
        <ele>114</ele>
        <time>2024-05-05T16:30:06Z</time>
      </trkpt>
      <trkpt lat="49.16619" lon="1.70959">
        <ele>116</ele>
        <time>2024-05-05T16:31:08Z</time>
      </trkpt>
      <trkpt lat="49.1666" lon="1.70951">
        <ele>118</ele>
        <time>2024-05-05T16:32:03Z</time>
      </trkpt>
      <trkpt lat="49.16716" lon="1.70961">
        <ele>120</ele>
        <time>2024-05-05T16:33:19Z</time>
      </trkpt>
      <trkpt lat="49.16749" lon="1.7098">
        <ele>121</ele>
        <time>2024-05-05T16:34:06Z</time>
      </trkpt>
      <trkpt lat="49.16773" lon="1.71007">
        <ele>123</ele>
        <time>2024-05-05T16:34:45Z</time>
      </trkpt>
      <trkpt lat="49.16885" lon="1.71178">
        <ele>127</ele>
        <time>2024-05-05T16:38:17Z</time>
      </trkpt>
      <trkpt lat="49.16958" lon="1.71284">
        <ele>131</ele>
        <time>2024-05-05T16:40:31Z</time>
      </trkpt>
      <trkpt lat="49.16997" lon="1.71336">
        <ele>133</ele>
        <time>2024-05-05T16:41:40Z</time>
      </trkpt>
      <trkpt lat="49.17041" lon="1.71382">
        <ele>137</ele>
        <time>2024-05-05T16:42:51Z</time>
      </trkpt>
      <trkpt lat="49.17066" lon="1.71418">
        <ele>139</ele>
        <time>2024-05-05T16:43:37Z</time>
      </trkpt>
      <trkpt lat="49.17099" lon="1.71505">
        <ele>148</ele>
        <time>2024-05-05T16:45:05Z</time>
      </trkpt>
      <trkpt lat="49.17111" lon="1.71528">
        <ele>150</ele>
        <time>2024-05-05T16:45:30Z</time>
      </trkpt>
      <trkpt lat="49.17134" lon="1.71557">
        <ele>152</ele>
        <time>2024-05-05T16:46:10Z</time>
      </trkpt>
      <trkpt lat="49.17162" lon="1.71608">
        <ele>154</ele>
        <time>2024-05-05T16:47:08Z</time>
      </trkpt>
      <trkpt lat="49.1719" lon="1.71649">
        <ele>155</ele>
        <time>2024-05-05T16:48:00Z</time>
      </trkpt>
      <trkpt lat="49.17204" lon="1.71674">
        <ele>156</ele>
        <time>2024-05-05T16:48:29Z</time>
      </trkpt>
      <trkpt lat="49.1721" lon="1.71679">
        <ele>156</ele>
        <time>2024-05-05T16:48:38Z</time>
      </trkpt>
      <trkpt lat="49.17229" lon="1.7169">
        <ele>157</ele>
        <time>2024-05-05T16:49:05Z</time>
      </trkpt>
      <trkpt lat="49.17235" lon="1.71698">
        <ele>157</ele>
        <time>2024-05-05T16:49:15Z</time>
      </trkpt>
      <trkpt lat="49.1727" lon="1.71728">
        <ele>159</ele>
        <time>2024-05-05T16:50:09Z</time>
      </trkpt>
      <trkpt lat="49.17354" lon="1.71824">
        <ele>160</ele>
        <time>2024-05-05T16:52:29Z</time>
      </trkpt>
      <trkpt lat="49.17397" lon="1.71868">
        <ele>160</ele>
        <time>2024-05-05T16:53:38Z</time>
      </trkpt>
      <trkpt lat="49.17431" lon="1.71907">
        <ele>159</ele>
        <time>2024-05-05T16:54:35Z</time>
      </trkpt>
      <trkpt lat="49.17454" lon="1.71919">
        <ele>158</ele>
        <time>2024-05-05T16:55:07Z</time>
      </trkpt>
      <trkpt lat="49.17461" lon="1.71935">
        <ele>158</ele>
        <time>2024-05-05T16:55:24Z</time>
      </trkpt>
      <trkpt lat="49.17472" lon="1.71944">
        <ele>157</ele>
        <time>2024-05-05T16:55:41Z</time>
      </trkpt>
      <trkpt lat="49.17481" lon="1.71947">
        <ele>156</ele>
        <time>2024-05-05T16:55:53Z</time>
      </trkpt>
      <trkpt lat="49.17498" lon="1.71945">
        <ele>156</ele>
        <time>2024-05-05T16:56:16Z</time>
      </trkpt>
      <trkpt lat="49.17505" lon="1.71946">
        <ele>155</ele>
        <time>2024-05-05T16:56:25Z</time>
      </trkpt>
      <trkpt lat="49.1753" lon="1.71944">
        <ele>153</ele>
        <time>2024-05-05T16:56:58Z</time>
      </trkpt>
      <trkpt lat="49.1756" lon="1.71939">
        <ele>151</ele>
        <time>2024-05-05T16:57:39Z</time>
      </trkpt>
      <trkpt lat="49.17578" lon="1.71939">
        <ele>149</ele>
        <time>2024-05-05T16:58:03Z</time>
      </trkpt>
      <trkpt lat="49.17588" lon="1.71941">
        <ele>148</ele>
        <time>2024-05-05T16:58:16Z</time>
      </trkpt>
      <trkpt lat="49.17622" lon="1.71971">
        <ele>144</ele>
        <time>2024-05-05T16:59:08Z</time>
      </trkpt>
      <trkpt lat="49.17626" lon="1.71987">
        <ele>144</ele>
        <time>2024-05-05T16:59:23Z</time>
      </trkpt>
      <trkpt lat="49.17626" lon="1.72001">
        <ele>143</ele>
        <time>2024-05-05T16:59:36Z</time>
      </trkpt>
      <trkpt lat="49.17622" lon="1.72043">
        <ele>140</ele>
        <time>2024-05-05T17:00:13Z</time>
      </trkpt>
      <trkpt lat="49.17623" lon="1.72093">
        <ele>135</ele>
        <time>2024-05-05T17:00:56Z</time>
      </trkpt>
      <trkpt lat="49.17627" lon="1.72132">
        <ele>132</ele>
        <time>2024-05-05T17:01:31Z</time>
      </trkpt>
      <trkpt lat="49.17636" lon="1.72161">
        <ele>128</ele>
        <time>2024-05-05T17:01:59Z</time>
      </trkpt>
      <trkpt lat="49.17669" lon="1.72255">
        <ele>123</ele>
        <time>2024-05-05T17:03:32Z</time>
      </trkpt>
      <trkpt lat="49.17741" lon="1.72441">
        <ele>127</ele>
        <time>2024-05-05T17:06:40Z</time>
      </trkpt>
      <trkpt lat="49.17745" lon="1.72447">
        <ele>127</ele>
        <time>2024-05-05T17:06:48Z</time>
      </trkpt>
      <trkpt lat="49.1775" lon="1.7246">
        <ele>129</ele>
        <time>2024-05-05T17:07:01Z</time>
      </trkpt>
      <trkpt lat="49.17746" lon="1.7247">
        <ele>129</ele>
        <time>2024-05-05T17:07:11Z</time>
      </trkpt>
      <trkpt lat="49.17691" lon="1.72595">
        <ele>135</ele>
        <time>2024-05-05T17:09:23Z</time>
      </trkpt>
      <trkpt lat="49.17637" lon="1.72736">
        <ele>134</ele>
        <time>2024-05-05T17:11:45Z</time>
      </trkpt>
      <trkpt lat="49.17631" lon="1.72755">
        <ele>134</ele>
        <time>2024-05-05T17:12:04Z</time>
      </trkpt>
      <trkpt lat="49.17612" lon="1.72809">
        <ele>134</ele>
        <time>2024-05-05T17:12:57Z</time>
      </trkpt>
      <trkpt lat="49.17596" lon="1.72861">
        <ele>133</ele>
        <time>2024-05-05T17:13:47Z</time>
      </trkpt>
      <trkpt lat="49.17586" lon="1.72886">
        <ele>132</ele>
        <time>2024-05-05T17:14:13Z</time>
      </trkpt>
      <trkpt lat="49.17538" lon="1.72983">
        <ele>129</ele>
        <time>2024-05-05T17:15:59Z</time>
      </trkpt>
      <trkpt lat="49.17529" lon="1.73009">
        <ele>130</ele>
        <time>2024-05-05T17:16:25Z</time>
      </trkpt>
      <trkpt lat="49.17517" lon="1.7303">
        <ele>130</ele>
        <time>2024-05-05T17:16:49Z</time>
      </trkpt>
      <trkpt lat="49.17497" lon="1.73082">
        <ele>131</ele>
        <time>2024-05-05T17:17:42Z</time>
      </trkpt>
      <trkpt lat="49.17489" lon="1.73103">
        <ele>131</ele>
        <time>2024-05-05T17:18:03Z</time>
      </trkpt>
      <trkpt lat="49.17478" lon="1.7315">
        <ele>132</ele>
        <time>2024-05-05T17:18:46Z</time>
      </trkpt>
      <trkpt lat="49.17467" lon="1.73239">
        <ele>136</ele>
        <time>2024-05-05T17:20:05Z</time>
      </trkpt>
      <trkpt lat="49.17448" lon="1.73306">
        <ele>137</ele>
        <time>2024-05-05T17:21:09Z</time>
      </trkpt>
      <trkpt lat="49.17441" lon="1.73324">
        <ele>137</ele>
        <time>2024-05-05T17:21:27Z</time>
      </trkpt>
      <trkpt lat="49.1743" lon="1.73359">
        <ele>137</ele>
        <time>2024-05-05T17:22:01Z</time>
      </trkpt>
      <trkpt lat="49.17412" lon="1.73409">
        <ele>136</ele>
        <time>2024-05-05T17:22:51Z</time>
      </trkpt>
      <trkpt lat="49.17348" lon="1.7355">
        <ele>139</ele>
        <time>2024-05-05T17:25:21Z</time>
      </trkpt>
      <trkpt lat="49.17339" lon="1.73567">
        <ele>139</ele>
        <time>2024-05-05T17:25:40Z</time>
      </trkpt>
      <trkpt lat="49.17326" lon="1.73585">
        <ele>139</ele>
        <time>2024-05-05T17:26:03Z</time>
      </trkpt>
      <trkpt lat="49.1731" lon="1.73612">
        <ele>140</ele>
        <time>2024-05-05T17:26:35Z</time>
      </trkpt>
      <trkpt lat="49.17308" lon="1.7362">
        <ele>140</ele>
        <time>2024-05-05T17:26:43Z</time>
      </trkpt>
      <trkpt lat="49.17305" lon="1.73622">
        <ele>140</ele>
        <time>2024-05-05T17:26:47Z</time>
      </trkpt>
      <trkpt lat="49.17296" lon="1.73637">
        <ele>141</ele>
        <time>2024-05-05T17:27:05Z</time>
      </trkpt>
      <trkpt lat="49.17287" lon="1.7364">
        <ele>140</ele>
        <time>2024-05-05T17:27:17Z</time>
      </trkpt>
      <trkpt lat="49.17283" lon="1.73649">
        <ele>141</ele>
        <time>2024-05-05T17:27:27Z</time>
      </trkpt>
      <trkpt lat="49.17273" lon="1.7365">
        <ele>140</ele>
        <time>2024-05-05T17:27:40Z</time>
      </trkpt>
      <trkpt lat="49.17239" lon="1.73641">
        <ele>139</ele>
        <time>2024-05-05T17:28:26Z</time>
      </trkpt>
      <trkpt lat="49.17215" lon="1.73632">
        <ele>140</ele>
        <time>2024-05-05T17:28:59Z</time>
      </trkpt>
      <trkpt lat="49.17201" lon="1.7363">
        <ele>140</ele>
        <time>2024-05-05T17:29:18Z</time>
      </trkpt>
      <trkpt lat="49.17166" lon="1.73597">
        <ele>140</ele>
        <time>2024-05-05T17:30:13Z</time>
      </trkpt>
      <trkpt lat="49.17146" lon="1.73583">
        <ele>141</ele>
        <time>2024-05-05T17:30:42Z</time>
      </trkpt>
      <trkpt lat="49.17113" lon="1.73568">
        <ele>143</ele>
        <time>2024-05-05T17:31:28Z</time>
      </trkpt>
      <trkpt lat="49.1707" lon="1.7356">
        <ele>146</ele>
        <time>2024-05-05T17:32:26Z</time>
      </trkpt>
      <trkpt lat="49.17023" lon="1.73539">
        <ele>148</ele>
        <time>2024-05-05T17:33:31Z</time>
      </trkpt>
      <trkpt lat="49.16971" lon="1.73519">
        <ele>151</ele>
        <time>2024-05-05T17:34:43Z</time>
      </trkpt>
      <trkpt lat="49.16965" lon="1.73519">
        <ele>151</ele>
        <time>2024-05-05T17:34:51Z</time>
      </trkpt>
      <trkpt lat="49.16935" lon="1.73521">
        <ele>154</ele>
        <time>2024-05-05T17:35:31Z</time>
      </trkpt>
      <trkpt lat="49.16911" lon="1.73543">
        <ele>156</ele>
        <time>2024-05-05T17:36:08Z</time>
      </trkpt>
      <trkpt lat="49.1688" lon="1.7359">
        <ele>158</ele>
        <time>2024-05-05T17:37:06Z</time>
      </trkpt>
      <trkpt lat="49.16835" lon="1.73631">
        <ele>160</ele>
        <time>2024-05-05T17:38:16Z</time>
      </trkpt>
      <trkpt lat="49.16802" lon="1.73653">
        <ele>160</ele>
        <time>2024-05-05T17:39:04Z</time>
      </trkpt>
      <trkpt lat="49.1676" lon="1.73688">
        <ele>158</ele>
        <time>2024-05-05T17:40:08Z</time>
      </trkpt>
      <trkpt lat="49.16745" lon="1.73708">
        <ele>157</ele>
        <time>2024-05-05T17:40:35Z</time>
      </trkpt>
      <trkpt lat="49.16741" lon="1.73717">
        <ele>156</ele>
        <time>2024-05-05T17:40:44Z</time>
      </trkpt>
      <trkpt lat="49.16735" lon="1.73767">
        <ele>153</ele>
        <time>2024-05-05T17:41:28Z</time>
      </trkpt>
      <trkpt lat="49.1673" lon="1.73787">
        <ele>151</ele>
        <time>2024-05-05T17:41:47Z</time>
      </trkpt>
      <trkpt lat="49.16716" lon="1.73817">
        <ele>148</ele>
        <time>2024-05-05T17:42:19Z</time>
      </trkpt>
      <trkpt lat="49.16735" lon="1.73881">
        <ele>146</ele>
        <time>2024-05-05T17:43:21Z</time>
      </trkpt>
      <trkpt lat="49.1675" lon="1.7394">
        <ele>145</ele>
        <time>2024-05-05T17:44:16Z</time>
      </trkpt>
      <trkpt lat="49.16761" lon="1.74017">
        <ele>143</ele>
        <time>2024-05-05T17:45:25Z</time>
      </trkpt>
      <trkpt lat="49.1677" lon="1.74032">
        <ele>143</ele>
        <time>2024-05-05T17:45:42Z</time>
      </trkpt>
      <trkpt lat="49.16769" lon="1.74037">
        <ele>143</ele>
        <time>2024-05-05T17:45:47Z</time>
      </trkpt>
      <trkpt lat="49.16762" lon="1.7412">
        <ele>142</ele>
        <time>2024-05-05T17:47:00Z</time>
      </trkpt>
      <trkpt lat="49.16762" lon="1.74203">
        <ele>143</ele>
        <time>2024-05-05T17:48:12Z</time>
      </trkpt>
      <trkpt lat="49.16755" lon="1.74223">
        <ele>143</ele>
        <time>2024-05-05T17:48:32Z</time>
      </trkpt>
      <trkpt lat="49.1675" lon="1.74248">
        <ele>143</ele>
        <time>2024-05-05T17:48:55Z</time>
      </trkpt>
      <trkpt lat="49.16744" lon="1.7429">
        <ele>144</ele>
        <time>2024-05-05T17:49:32Z</time>
      </trkpt>
      <trkpt lat="49.16734" lon="1.74349">
        <ele>146</ele>
        <time>2024-05-05T17:50:26Z</time>
      </trkpt>
      <trkpt lat="49.16724" lon="1.74384">
        <ele>146</ele>
        <time>2024-05-05T17:50:59Z</time>
      </trkpt>
      <trkpt lat="49.16711" lon="1.74421">
        <ele>146</ele>
        <time>2024-05-05T17:51:36Z</time>
      </trkpt>
      <trkpt lat="49.16612" lon="1.74635">
        <ele>144</ele>
        <time>2024-05-05T17:55:24Z</time>
      </trkpt>
      <trkpt lat="49.16589" lon="1.74697">
        <ele>145</ele>
        <time>2024-05-05T17:56:27Z</time>
      </trkpt>
      <trkpt lat="49.16581" lon="1.74712">
        <ele>145</ele>
        <time>2024-05-05T17:56:43Z</time>
      </trkpt>
      <trkpt lat="49.1657" lon="1.74725">
        <ele>146</ele>
        <time>2024-05-05T17:57:02Z</time>
      </trkpt>
      <trkpt lat="49.16549" lon="1.74745">
        <ele>147</ele>
        <time>2024-05-05T17:57:35Z</time>
      </trkpt>
      <trkpt lat="49.16512" lon="1.74788">
        <ele>149</ele>
        <time>2024-05-05T17:58:37Z</time>
      </trkpt>
      <trkpt lat="49.16446" lon="1.74901">
        <ele>150</ele>
        <time>2024-05-05T18:00:49Z</time>
      </trkpt>
      <trkpt lat="49.16439" lon="1.74907">
        <ele>150</ele>
        <time>2024-05-05T18:01:00Z</time>
      </trkpt>
      <trkpt lat="49.16421" lon="1.74914">
        <ele>150</ele>
        <time>2024-05-05T18:01:25Z</time>
      </trkpt>
      <trkpt lat="49.16412" lon="1.7491">
        <ele>150</ele>
        <time>2024-05-05T18:01:37Z</time>
      </trkpt>
      <trkpt lat="49.16369" lon="1.74862">
        <ele>150</ele>
        <time>2024-05-05T18:02:48Z</time>
      </trkpt>
      <trkpt lat="49.16357" lon="1.74851">
        <ele>150</ele>
        <time>2024-05-05T18:03:07Z</time>
      </trkpt>
      <trkpt lat="49.16322" lon="1.74851">
        <ele>151</ele>
        <time>2024-05-05T18:03:54Z</time>
      </trkpt>
      <trkpt lat="49.16296" lon="1.74864">
        <ele>151</ele>
        <time>2024-05-05T18:04:30Z</time>
      </trkpt>
      <trkpt lat="49.16271" lon="1.74871">
        <ele>152</ele>
        <time>2024-05-05T18:05:04Z</time>
      </trkpt>
      <trkpt lat="49.16263" lon="1.74876">
        <ele>152</ele>
        <time>2024-05-05T18:05:16Z</time>
      </trkpt>
      <trkpt lat="49.16252" lon="1.74886">
        <ele>152</ele>
        <time>2024-05-05T18:05:33Z</time>
      </trkpt>
      <trkpt lat="49.16227" lon="1.74925">
        <ele>151</ele>
        <time>2024-05-05T18:06:20Z</time>
      </trkpt>
      <trkpt lat="49.162" lon="1.74964">
        <ele>149</ele>
        <time>2024-05-05T18:07:10Z</time>
      </trkpt>
      <trkpt lat="49.16121" lon="1.75092">
        <ele>148</ele>
        <time>2024-05-05T18:09:43Z</time>
      </trkpt>
      <trkpt lat="49.16098" lon="1.75099">
        <ele>148</ele>
        <time>2024-05-05T18:10:15Z</time>
      </trkpt>
      <trkpt lat="49.16041" lon="1.75113">
        <ele>147</ele>
        <time>2024-05-05T18:11:32Z</time>
      </trkpt>
      <trkpt lat="49.15974" lon="1.75127">
        <ele>145</ele>
        <time>2024-05-05T18:13:02Z</time>
      </trkpt>
      <trkpt lat="49.15933" lon="1.75139">
        <ele>144</ele>
        <time>2024-05-05T18:13:58Z</time>
      </trkpt>
      <trkpt lat="49.15926" lon="1.75156">
        <ele>145</ele>
        <time>2024-05-05T18:14:15Z</time>
      </trkpt>
      <trkpt lat="49.15919" lon="1.75186">
        <ele>145</ele>
        <time>2024-05-05T18:14:43Z</time>
      </trkpt>
      <trkpt lat="49.15885" lon="1.75298">
        <ele>147</ele>
        <time>2024-05-05T18:16:31Z</time>
      </trkpt>
      <trkpt lat="49.15877" lon="1.75349">
        <ele>147</ele>
        <time>2024-05-05T18:17:17Z</time>
      </trkpt>
      <trkpt lat="49.1587" lon="1.75434">
        <ele>145</ele>
        <time>2024-05-05T18:18:31Z</time>
      </trkpt>
      <trkpt lat="49.15866" lon="1.75482">
        <ele>143</ele>
        <time>2024-05-05T18:19:14Z</time>
      </trkpt>
      <trkpt lat="49.15858" lon="1.75524">
        <ele>141</ele>
        <time>2024-05-05T18:19:52Z</time>
      </trkpt>
      <trkpt lat="49.15842" lon="1.75636">
        <ele>137</ele>
        <time>2024-05-05T18:21:32Z</time>
      </trkpt>
      <trkpt lat="49.15843" lon="1.75691">
        <ele>135</ele>
        <time>2024-05-05T18:22:20Z</time>
      </trkpt>
      <trkpt lat="49.15849" lon="1.75745">
        <ele>133</ele>
        <time>2024-05-05T18:23:08Z</time>
      </trkpt>
      <trkpt lat="49.15848" lon="1.75773">
        <ele>131</ele>
        <time>2024-05-05T18:23:32Z</time>
      </trkpt>
      <trkpt lat="49.15838" lon="1.75803">
        <ele>127</ele>
        <time>2024-05-05T18:24:01Z</time>
      </trkpt>
      <trkpt lat="49.15829" lon="1.75825">
        <ele>125</ele>
        <time>2024-05-05T18:24:24Z</time>
      </trkpt>
      <trkpt lat="49.15812" lon="1.7586">
        <ele>121</ele>
        <time>2024-05-05T18:25:02Z</time>
      </trkpt>
      <trkpt lat="49.15796" lon="1.75885">
        <ele>118</ele>
        <time>2024-05-05T18:25:33Z</time>
      </trkpt>
      <trkpt lat="49.15793" lon="1.75893">
        <ele>118</ele>
        <time>2024-05-05T18:25:41Z</time>
      </trkpt>
      <trkpt lat="49.15774" lon="1.75929">
        <ele>114</ele>
        <time>2024-05-05T18:26:21Z</time>
      </trkpt>
      <trkpt lat="49.15762" lon="1.7596">
        <ele>113</ele>
        <time>2024-05-05T18:26:53Z</time>
      </trkpt>
      <trkpt lat="49.15762" lon="1.75966">
        <ele>113</ele>
        <time>2024-05-05T18:26:58Z</time>
      </trkpt>
      <trkpt lat="49.15759" lon="1.75969">
        <ele>112</ele>
        <time>2024-05-05T18:27:03Z</time>
      </trkpt>
      <trkpt lat="49.15758" lon="1.75962">
        <ele>113</ele>
        <time>2024-05-05T18:27:09Z</time>
      </trkpt>
      <trkpt lat="49.15628" lon="1.76391">
        <ele>99</ele>
        <time>2024-05-05T18:34:01Z</time>
      </trkpt>
      <trkpt lat="49.15437" lon="1.76528">
        <ele>102</ele>
        <time>2024-05-05T18:38:43Z</time>
      </trkpt>
      <trkpt lat="49.1514" lon="1.76794">
        <ele>85</ele>
        <time>2024-05-05T18:46:22Z</time>
      </trkpt>
      <trkpt lat="49.14969" lon="1.76944">
        <ele>61</ele>
        <time>2024-05-05T18:50:45Z</time>
      </trkpt>
      <trkpt lat="49.1482" lon="1.7703">
        <ele>64</ele>
        <time>2024-05-05T18:54:18Z</time>
      </trkpt>
      <trkpt lat="49.1471" lon="1.76762">
        <ele>63</ele>
        <time>2024-05-05T18:58:54Z</time>
      </trkpt>
    </trkseg>
  </trk>
</gpx>